Terminal Aerodrome Forecast
Issued by NWS Corpus Christi, TX

Home | Current Version | Previous Version | Text Only | Print | Product List | Glossary On
Versions: 1 2 3 4 5 6 7 8 9 10 11 12 13 14 15 16 17
000
FTUS44 KCRP 211100
TAFVCT
TAF
KVCT 211132Z 2112/2212 VRB03KT 6SM BR SCT012
     FM211400 04008KT P6SM SCT025
     FM211700 07010KT P6SM SCT035
     FM220000 08004KT P6SM SCT025
     FM220500 01003KT P6SM FEW015=

USA.gov is the U.S. government's official web portal to all federal, state and local government web resources and services.